Time;durP1;ratioP1;P1;durP2;ratioP2;P2;SDS_P1;SDS_P2;PMS_P1;PMS_P2;Temp;Humidity;BMP_temperature;BMP_pressure;BME280_temperature;BME280_humidity;BME280_pressure;Samples;Min_cycle;Max_cycle;Signal;HPM_P1;HPM_P2
2023/06/25 00:00:27;;;;;;;13.87;12.77;;;17.60;99.90;;;;;;2613620;39;20842;-69
2023/06/25 00:06:14;;;;;;;14.40;13.20;;;17.50;99.90;;;;;;2614174;54;20657;-68
2023/06/25 00:09:28;;;;;;;13.30;12.20;;;17.50;99.90;;;;;;2613995;54;20424;-68
2023/06/25 00:11:54;;;;;;;14.20;12.53;;;17.50;99.90;;;;;;2611964;54;20197;-69
2023/06/25 00:17:41;;;;;;;13.37;12.40;;;17.60;99.90;;;;;;2614060;54;20182;-69
2023/06/25 00:23:29;;;;;;;12.90;11.90;;;17.40;99.90;;;;;;2613283;54;20259;-69
2023/06/25 00:29:17;;;;;;;13.30;12.20;;;17.40;99.90;;;;;;2613681;54;20239;-69
2023/06/25 00:35:06;;;;;;;12.70;11.80;;;17.40;99.90;;;;;;2611615;54;20115;-69
2023/06/25 00:38:10;;;;;;;12.83;11.80;;;17.40;99.90;;;;;;2613551;54;20404;-70
2023/06/25 00:40:36;;;;;;;12.57;11.43;;;17.50;99.90;;;;;;2612452;54;20562;-70
2023/06/25 00:46:25;;;;;;;12.90;11.90;;;17.40;99.90;;;;;;2613689;54;20410;-70
2023/06/25 00:52:15;;;;;;;16.73;13.33;;;17.30;99.90;;;;;;2612658;54;20997;-69
2023/06/25 00:58:03;;;;;;;13.70;12.60;;;17.00;99.90;;;;;;2611044;54;20358;-71
2023/06/25 01:03:57;;;;;;;14.17;12.97;;;17.00;99.90;;;;;;2612420;54;20391;-69
2023/06/25 01:13:56;;;;;;;12.90;11.90;;;16.90;99.90;;;;;;2613158;54;20399;-69
2023/06/25 01:19:45;;;;;;;12.60;11.60;;;16.80;99.90;;;;;;2613638;54;20452;-70
2023/06/25 01:25:36;;;;;;;14.07;12.63;;;16.90;99.90;;;;;;2614597;54;20909;-69
2023/06/25 01:31:31;;;;;;;14.40;13.10;;;16.70;99.90;;;;;;2614042;54;20411;-69
2023/06/25 01:37:18;;;;;;;14.13;12.83;;;16.70;99.90;;;;;;2614370;54;20372;-70
2023/06/25 01:43:06;;;;;;;13.00;12.00;;;16.70;99.90;;;;;;2613737;54;20207;-69
2023/06/25 01:48:53;;;;;;;13.07;12.07;;;16.60;99.90;;;;;;2614725;54;20158;-70
2023/06/25 01:54:41;;;;;;;12.57;11.40;;;16.70;99.90;;;;;;2613882;54;20122;-69
2023/06/25 02:00:29;;;;;;;13.53;12.33;;;16.50;99.90;;;;;;2614213;54;20147;-69
2023/06/25 02:06:17;;;;;;;13.30;11.80;;;16.50;99.90;;;;;;2614900;54;20130;-69
2023/06/25 02:09:28;;;;;;;12.70;11.70;;;16.50;99.90;;;;;;2614078;54;20419;-69
2023/06/25 02:11:54;;;;;;;12.60;11.60;;;16.60;99.90;;;;;;2614212;54;20945;-69
2023/06/25 02:17:42;;;;;;;12.60;11.60;;;16.50;99.90;;;;;;2614643;54;20137;-68
2023/06/25 02:23:29;;;;;;;13.07;11.97;;;16.50;99.90;;;;;;2614027;54;20122;-70
2023/06/25 02:29:17;;;;;;;12.40;11.50;;;16.60;99.90;;;;;;2613940;54;20666;-69
2023/06/25 02:35:05;;;;;;;12.90;11.70;;;16.40;99.90;;;;;;2613367;54;20161;-69
2023/06/25 02:40:52;;;;;;;12.10;11.00;;;16.50;99.90;;;;;;2613927;54;20959;-69
2023/06/25 02:46:40;;;;;;;13.10;11.90;;;16.40;99.90;;;;;;2612899;54;20155;-69
2023/06/25 02:52:28;;;;;;;12.50;11.30;;;16.30;99.90;;;;;;2613381;54;20774;-70
2023/06/25 02:58:15;;;;;;;13.87;11.03;;;16.20;99.90;;;;;;2614178;54;20530;-69
2023/06/25 03:04:03;;;;;;;13.57;12.27;;;16.20;99.90;;;;;;2614464;39;20549;-68
2023/06/25 03:13:57;;;;;;;12.77;11.67;;;16.10;99.90;;;;;;2612839;46;20487;-75
2023/06/25 03:19:44;;;;;;;14.10;12.90;;;15.90;99.90;;;;;;2614314;54;20349;-75
2023/06/25 03:25:32;;;;;;;13.97;12.63;;;15.90;99.90;;;;;;2612796;54;20174;-70
2023/06/25 03:31:20;;;;;;;13.43;12.33;;;15.90;99.90;;;;;;2614216;54;20839;-69
2023/06/25 03:37:08;;;;;;;13.13;11.80;;;16.00;99.90;;;;;;2613257;39;20810;-68
2023/06/25 03:42:55;;;;;;;14.13;12.60;;;16.20;99.90;;;;;;2614207;54;20420;-69
2023/06/25 03:48:44;;;;;;;15.23;13.23;;;16.10;99.90;;;;;;2614242;54;20647;-68
2023/06/25 03:54:33;;;;;;;13.20;12.10;;;16.00;99.90;;;;;;2610748;54;20391;-69
2023/06/25 04:00:20;;;;;;;12.63;11.53;;;16.10;99.90;;;;;;2612873;54;20359;-69
2023/06/25 04:06:08;;;;;;;13.50;12.40;;;16.20;99.90;;;;;;2613893;54;20178;-69
2023/06/25 04:09:28;;;;;;;14.00;12.87;;;16.20;99.90;;;;;;2613673;54;20408;-70
2023/06/25 04:11:54;;;;;;;13.90;12.70;;;16.30;99.90;;;;;;2612682;54;20190;-69
2023/06/25 04:17:42;;;;;;;13.60;12.50;;;16.60;99.90;;;;;;2614117;54;20161;-68
2023/06/25 04:23:29;;;;;;;14.03;12.60;;;16.80;99.90;;;;;;2613245;54;20134;-68
2023/06/25 04:29:17;;;;;;;13.93;12.73;;;17.10;99.90;;;;;;2614362;54;20648;-68
2023/06/25 04:35:05;;;;;;;13.57;12.67;;;17.30;99.90;;;;;;2612858;54;20215;-70
2023/06/25 04:40:53;;;;;;;14.67;13.67;;;17.90;99.90;;;;;;2613766;54;20363;-70
2023/06/25 04:46:40;;;;;;;14.03;12.97;;;18.40;99.90;;;;;;2612505;54;20150;-69
2023/06/25 04:52:28;;;;;;;14.17;13.27;;;18.90;99.90;;;;;;2612777;54;20250;-70
2023/06/25 04:58:16;;;;;;;15.00;13.80;;;19.70;99.90;;;;;;2611225;54;20680;-69
2023/06/25 05:04:03;;;;;;;15.93;14.63;;;20.00;99.90;;;;;;2615394;54;20256;-69
2023/06/25 05:13:57;;;;;;;16.00;14.73;;;20.80;99.90;;;;;;2614170;54;20407;-70
2023/06/25 05:17:00;;;;;;;16.63;15.23;;;20.90;99.90;;;;;;2614295;47;21033;-69
2023/06/25 05:19:26;;;;;;;17.37;16.20;;;21.10;99.90;;;;;;2614240;54;20395;-69
2023/06/25 05:25:13;;;;;;;16.27;15.27;;;21.60;99.90;;;;;;2613238;39;20506;-68
2023/06/25 05:31:01;;;;;;;18.20;16.90;;;22.30;99.90;;;;;;2615047;54;20122;-70
2023/06/25 05:36:49;;;;;;;16.00;14.90;;;22.30;99.90;;;;;;2615562;39;20555;-69
2023/06/25 05:42:37;;;;;;;17.43;16.43;;;22.30;99.90;;;;;;2614736;54;20746;-69
2023/06/25 05:48:25;;;;;;;17.07;15.90;;;22.60;99.90;;;;;;2614554;39;20799;-70
2023/06/25 05:54:13;;;;;;;19.03;17.73;;;23.10;99.90;;;;;;2613043;54;20917;-70
2023/06/25 06:00:01;;;;;;;18.00;17.00;;;24.10;99.90;;;;;;2614195;39;20343;-69
2023/06/25 06:05:48;;;;;;;17.80;16.70;;;24.80;99.90;;;;;;2613306;54;20239;-68
2023/06/25 06:11:36;;;;;;;17.80;16.80;;;25.10;99.90;;;;;;2614340;54;20274;-69
2023/06/25 06:17:24;;;;;;;18.07;17.00;;;25.40;99.90;;;;;;2609534;54;20130;-71
2023/06/25 06:23:12;;;;;;;17.97;16.87;;;25.80;99.90;;;;;;2614469;54;20123;-70
2023/06/25 06:29:03;;;;;;;19.50;18.40;;;26.20;99.90;;;;;;2613579;54;20122;-69
2023/06/25 06:34:51;;;;;;;19.87;18.47;;;25.90;99.90;;;;;;2615040;54;20399;-70
2023/06/25 06:40:39;;;;;;;17.80;16.90;;;25.80;99.90;;;;;;2614111;54;20657;-70
2023/06/25 06:46:26;;;;;;;17.50;16.50;;;26.20;99.90;;;;;;2612528;54;20122;-70
2023/06/25 06:52:15;;;;;;;17.07;16.00;;;27.30;99.90;;;;;;2614345;54;20947;-68
2023/06/25 06:58:02;;;;;;;18.27;17.17;;;27.00;99.90;;;;;;2614300;39;20790;-70
2023/06/25 07:03:50;;;;;;;18.83;17.73;;;27.90;99.90;;;;;;2613401;54;20636;-70
2023/06/25 07:16:22;;;;;;;19.50;18.40;;;28.00;96.30;;;;;;2614524;54;20367;-70
2023/06/25 07:22:09;;;;;;;18.67;17.27;;;27.70;92.90;;;;;;2612187;54;20122;-70
2023/06/25 07:27:57;;;;;;;18.63;17.63;;;29.30;81.90;;;;;;2613996;54;20115;-70
2023/06/25 07:33:45;;;;;;;17.20;16.20;;;28.80;79.40;;;;;;2610912;54;20154;-70
2023/06/25 07:39:33;;;;;;;17.90;16.97;;;29.20;70.20;;;;;;2612306;54;20143;-70
2023/06/25 07:45:21;;;;;;;18.20;17.20;;;29.50;57.60;;;;;;2614196;39;21061;-69
2023/06/25 07:51:09;;;;;;;18.13;17.17;;;29.70;55.10;;;;;;2614211;54;20135;-71
2023/06/25 07:56:57;;;;;;;17.63;16.73;;;29.20;54.40;;;;;;2613039;54;20946;-71
2023/06/25 08:02:45;;;;;;;16.40;15.60;;;29.10;48.30;;;;;;2612641;39;20616;-70
2023/06/25 08:08:32;;;;;;;17.57;16.60;;;29.60;42.80;;;;;;2613786;54;20182;-70
2023/06/25 08:14:20;;;;;;;17.77;16.70;;;30.40;35.90;;;;;;2611088;54;20198;-70
2023/06/25 08:20:08;;;;;;;17.33;15.90;;;30.80;33.20;;;;;;2613690;54;20648;-71
2023/06/25 08:25:56;;;;;;;17.90;17.00;;;30.30;23.90;;;;;;2614166;31;20884;-70
2023/06/25 08:31:43;;;;;;;18.17;17.17;;;30.80;24.90;;;;;;2613486;54;20122;-71
2023/06/25 08:37:33;;;;;;;18.80;17.70;;;30.60;23.20;;;;;;2615599;39;20500;-69
2023/06/25 08:43:20;;;;;;;19.10;18.10;;;31.20;22.20;;;;;;2614924;54;20391;-70
2023/06/25 08:49:09;;;;;;;19.13;18.13;;;31.80;16.90;;;;;;2613366;39;20229;-70
2023/06/25 08:54:56;;;;;;;17.57;16.67;;;31.20;15.10;;;;;;2610329;39;20741;-71
2023/06/25 09:00:44;;;;;;;17.53;16.73;;;31.10;12.70;;;;;;2612313;54;20130;-71
2023/06/25 09:06:39;;;;;;;18.50;17.53;;;31.20;15.90;;;;;;2612449;54;20134;-71
2023/06/25 09:12:27;;;;;;;18.23;17.23;;;32.00;9.70;;;;;;2613409;54;20415;-71
2023/06/25 09:18:15;;;;;;;17.40;16.50;;;31.70;11.60;;;;;;2609385;54;20183;-70
2023/06/25 09:30:47;;;;;;;17.63;16.63;;;31.40;10.10;;;;;;2610925;39;20806;-71
2023/06/25 09:36:35;;;;;;;18.00;17.00;;;31.30;9.00;;;;;;2609481;54;20693;-68
2023/06/25 09:42:24;;;;;;;16.60;15.80;;;32.00;6.40;;;;;;2613897;54;20427;-71
2023/06/25 09:48:12;;;;;;;17.43;16.43;;;31.40;5.50;;;;;;2614943;54;20204;-71
2023/06/25 09:54:07;;;;;;;17.47;16.50;;;31.80;7.20;;;;;;2614446;54;20404;-70
2023/06/25 09:59:55;;;;;;;18.33;17.43;;;33.00;4.20;;;;;;2614314;54;20382;-70
2023/06/25 10:05:43;;;;;;;17.73;16.83;;;31.80;5.50;;;;;;2614260;54;20122;-70
2023/06/25 10:11:32;;;;;;;18.20;17.30;;;31.80;2.50;;;;;;2611918;54;20482;-71
2023/06/25 10:20:44;;;;;;;21.30;19.97;;;31.10;5.50;;;;;;2613663;54;20390;-70
2023/06/25 10:26:35;;;;;;;20.30;19.20;;;31.90;2.00;;;;;;2614420;54;20371;-69
2023/06/25 10:32:28;;;;;;;29.47;27.50;;;31.90;3.30;;;;;;2614083;54;22035;-71
2023/06/25 10:38:16;;;;;;;234.03;214.53;;;31.70;2.90;;;;;;2613471;54;20581;-70
2023/06/25 10:44:04;;;;;;;50.87;47.23;;;32.40;1.00;;;;;;2614608;54;20169;-71
2023/06/25 10:49:52;;;;;;;84.07;77.53;;;31.80;1.00;;;;;;2615376;46;20354;-72
2023/06/25 10:55:44;;;;;;;298.83;271.13;;;31.60;2.70;;;;;;2614175;54;20155;-70
2023/06/25 11:01:35;;;;;;;272.63;251.50;;;32.00;1.00;;;;;;2610565;54;20516;-70
2023/06/25 11:07:25;;;;;;;49.30;45.70;;;32.10;1.00;;;;;;2614105;54;20376;-70
2023/06/25 11:13:13;;;;;;;20.00;18.90;;;32.70;2.10;;;;;;2614447;54;20362;-71
2023/06/25 11:16:03;;;;;;;16.77;15.97;;;32.00;1.00;;;;;;2612806;54;20423;-71
2023/06/25 11:21:56;;;;;;;19.27;18.27;;;33.20;1.00;;;;;;2617434;54;20421;-70
2023/06/25 11:27:44;;;;;;;18.53;17.63;;;33.10;1.00;;;;;;2618321;54;20130;-69
2023/06/25 11:33:32;;;;;;;18.17;17.27;;;32.10;1.00;;;;;;2616356;54;20262;-71
2023/06/25 11:39:19;;;;;;;16.60;15.80;;;32.80;1.00;;;;;;2617875;54;20153;-70
2023/06/25 11:45:08;;;;;;;17.50;16.60;;;32.90;1.00;;;;;;2618575;54;20141;-70
2023/06/25 11:57:10;;;;;;;17.87;16.93;;;31.70;1.00;;;;;;2617544;54;20383;-70
2023/06/25 12:02:58;;;;;;;17.43;16.63;;;33.30;1.00;;;;;;2616828;38;20423;-70
2023/06/25 12:08:46;;;;;;;16.47;15.67;;;34.10;1.00;;;;;;2616485;54;20714;-77
2023/06/25 12:14:35;;;;;;;17.50;16.63;;;32.40;1.00;;;;;;2617018;54;20126;-76
2023/06/25 12:20:23;;;;;;;17.83;17.03;;;33.00;1.00;;;;;;2617897;54;20406;-76
2023/06/25 12:26:10;;;;;;;17.40;16.60;;;33.70;1.00;;;;;;2616246;38;20503;-77
2023/06/25 12:31:58;;;;;;;15.90;15.10;;;32.90;1.00;;;;;;2615126;54;20135;-77
2023/06/25 12:37:47;;;;;;;16.27;15.47;;;32.60;1.00;;;;;;2614906;54;20242;-76
2023/06/25 12:43:36;;;;;;;16.67;15.77;;;33.80;1.00;;;;;;2614983;54;20511;-78
2023/06/25 12:49:24;;;;;;;16.10;15.30;;;33.60;1.00;;;;;;2614750;54;20379;-77
2023/06/25 12:55:12;;;;;;;16.17;15.27;;;33.50;1.00;;;;;;2614602;54;20154;-76
2023/06/25 13:01:00;;;;;;;16.37;15.60;;;33.70;1.00;;;;;;2614244;54;20387;-77
2023/06/25 13:06:47;;;;;;;16.83;16.03;;;32.70;1.00;;;;;;2613369;54;20135;-76
2023/06/25 13:12:37;;;;;;;15.77;15.07;;;33.10;1.00;;;;;;2614489;54;20231;-77
2023/06/25 13:18:25;;;;;;;15.80;15.10;;;33.30;1.00;;;;;;2614058;54;20462;-76
2023/06/25 13:24:13;;;;;;;16.33;15.47;;;33.00;1.00;;;;;;2614921;54;20705;-77
2023/06/25 13:30:00;;;;;;;15.70;14.90;;;33.80;1.00;;;;;;2615116;39;20641;-76
2023/06/25 13:35:48;;;;;;;16.50;15.70;;;34.20;1.00;;;;;;2613899;54;20134;-78
2023/06/25 13:41:36;;;;;;;15.60;14.80;;;34.00;1.00;;;;;;2613936;54;20391;-77
2023/06/25 13:47:24;;;;;;;16.60;15.70;;;33.40;1.00;;;;;;2614274;54;20151;-77
2023/06/25 13:53:12;;;;;;;16.73;15.93;;;33.20;1.00;;;;;;2613197;54;20540;-78
2023/06/25 13:58:59;;;;;;;16.80;16.00;;;33.80;1.00;;;;;;2614811;54;20166;-78
2023/06/25 14:04:47;;;;;;;17.20;16.20;;;32.50;1.00;;;;;;2613780;54;20150;-77
2023/06/25 14:10:35;;;;;;;17.37;16.30;;;32.00;1.00;;;;;;2613353;54;20802;-77
2023/06/25 14:20:44;;;;;;;16.80;16.00;;;33.30;1.00;;;;;;2610465;54;21030;-76
2023/06/25 14:26:31;;;;;;;17.50;16.60;;;33.50;1.00;;;;;;2612911;54;20399;-77
2023/06/25 14:32:19;;;;;;;15.80;15.07;;;33.20;1.00;;;;;;2614080;54;20161;-76
2023/06/25 14:38:07;;;;;;;16.43;15.60;;;33.90;1.00;;;;;;2613981;54;20132;-76
2023/06/25 14:43:55;;;;;;;16.10;15.40;;;33.30;1.00;;;;;;2614369;54;20134;-77
2023/06/25 14:49:43;;;;;;;16.80;16.00;;;33.50;1.00;;;;;;2614008;54;20150;-76
2023/06/25 14:55:31;;;;;;;16.80;16.00;;;33.20;1.00;;;;;;2614172;54;20165;-76
2023/06/25 15:01:18;;;;;;;16.80;15.90;;;32.00;1.00;;;;;;2614406;54;20165;-76
2023/06/25 15:07:06;;;;;;;16.43;15.63;;;33.30;1.00;;;;;;2613666;54;20150;-76
2023/06/25 15:12:54;;;;;;;16.97;16.07;;;32.60;1.00;;;;;;2613657;54;20130;-76
2023/06/25 15:16:13;;;;;;;15.87;15.17;;;33.00;1.00;;;;;;2612928;54;20425;-76
2023/06/25 15:18:38;;;;;;;16.20;15.40;;;33.30;1.00;;;;;;2611075;54;20704;-76
2023/06/25 15:24:26;;;;;;;16.43;15.53;;;32.50;1.00;;;;;;2613560;54;20204;-77
2023/06/25 15:30:14;;;;;;;16.70;15.90;;;32.30;1.00;;;;;;2613938;54;20130;-77
2023/06/25 15:36:02;;;;;;;15.70;14.87;;;33.50;1.00;;;;;;2613432;39;20256;-76
2023/06/25 15:41:49;;;;;;;16.13;15.33;;;33.60;1.00;;;;;;2613894;54;20142;-76
2023/06/25 15:47:37;;;;;;;16.70;15.67;;;33.20;1.00;;;;;;2614596;54;20161;-76
2023/06/25 15:53:25;;;;;;;16.23;15.33;;;32.50;1.00;;;;;;2613545;54;20166;-76
2023/06/25 15:59:13;;;;;;;16.70;15.90;;;33.60;1.00;;;;;;2610990;54;20411;-76
2023/06/25 16:05:02;;;;;;;16.20;15.30;;;32.80;1.00;;;;;;2610164;54;20246;-76
2023/06/25 16:10:50;;;;;;;16.20;15.30;;;33.60;1.00;;;;;;2611995;54;20399;-76
2023/06/25 16:20:43;;;;;;;16.70;15.90;;;33.80;1.00;;;;;;2613202;46;20374;-75
2023/06/25 16:26:31;;;;;;;16.90;16.10;;;34.50;1.00;;;;;;2613133;54;20426;-75
2023/06/25 16:32:19;;;;;;;17.57;16.77;;;33.90;1.00;;;;;;2614255;54;20134;-76
2023/06/25 16:38:07;;;;;;;17.00;16.20;;;33.70;1.00;;;;;;2613064;54;20138;-76
2023/06/25 16:43:54;;;;;;;16.63;15.83;;;32.90;1.00;;;;;;2613003;54;20178;-75
2023/06/25 16:49:44;;;;;;;17.70;16.90;;;32.50;1.00;;;;;;2613502;54;20704;-76
2023/06/25 16:55:32;;;;;;;15.70;15.00;;;33.10;1.00;;;;;;2613676;39;20914;-76
2023/06/25 17:01:20;;;;;;;17.60;16.80;;;33.10;1.00;;;;;;2613589;54;20118;-75
2023/06/25 17:07:08;;;;;;;17.70;16.90;;;32.40;1.00;;;;;;2614866;54;20134;-75
2023/06/25 17:12:58;;;;;;;16.87;16.07;;;32.60;1.00;;;;;;2613049;54;20530;-76
2023/06/25 17:18:45;;;;;;;19.70;18.80;;;32.20;1.00;;;;;;2614263;54;20466;-76
2023/06/25 17:21:57;;;;;;;18.73;17.93;;;32.30;1.00;;;;;;2614132;47;20523;-75
2023/06/25 17:27:45;;;;;;;19.07;18.17;;;32.00;1.00;;;;;;2613638;54;20431;-75
2023/06/25 17:33:33;;;;;;;20.50;19.50;;;32.20;1.00;;;;;;2612796;54;20387;-75
2023/06/25 17:39:20;;;;;;;19.43;18.43;;;31.90;1.00;;;;;;2613857;39;20737;-77
2023/06/25 17:45:08;;;;;;;19.57;18.67;;;31.50;1.00;;;;;;2612668;54;20166;-75
2023/06/25 17:50:59;;;;;;;18.53;17.63;;;31.00;1.00;;;;;;2610664;54;20391;-76
2023/06/25 17:56:47;;;;;;;18.60;17.67;;;30.60;1.00;;;;;;2612791;54;21008;-75
2023/06/25 18:02:37;;;;;;;18.60;17.60;;;30.50;1.00;;;;;;2614024;54;20418;-76
2023/06/25 18:08:24;;;;;;;18.33;17.43;;;30.20;1.00;;;;;;2614024;54;20956;-76
2023/06/25 18:14:12;;;;;;;18.10;17.30;;;30.20;1.00;;;;;;2613680;54;20147;-75
2023/06/25 18:20:11;;;;;;;19.67;18.37;;;30.10;1.00;;;;;;2612657;54;20773;-76
2023/06/25 18:26:01;;;;;;;20.27;19.27;;;29.90;1.00;;;;;;2611154;54;20158;-76
2023/06/25 18:31:48;;;;;;;19.03;18.03;;;29.70;1.40;;;;;;2606900;54;20866;-76
2023/06/25 18:37:36;;;;;;;20.37;19.00;;;29.60;3.20;;;;;;2609822;54;20406;-77
2023/06/25 18:43:23;;;;;;;19.50;18.60;;;29.40;4.90;;;;;;2608416;54;20130;-77
2023/06/25 18:49:10;;;;;;;19.10;17.90;;;29.30;5.60;;;;;;2612482;54;20122;-77
2023/06/25 18:54:57;;;;;;;20.90;19.60;;;29.20;7.50;;;;;;2609396;54;20166;-76
2023/06/25 19:00:45;;;;;;;19.20;18.30;;;28.90;10.10;;;;;;2610909;39;20713;-76
2023/06/25 19:06:34;;;;;;;18.83;17.83;;;28.70;11.50;;;;;;2611524;54;20206;-76
2023/06/25 19:12:24;;;;;;;18.60;17.60;;;28.50;13.20;;;;;;2614159;54;20454;-74
2023/06/25 19:21:56;;;;;;;19.07;18.17;;;28.10;15.90;;;;;;2613069;54;20399;-76
2023/06/25 19:27:43;;;;;;;20.37;19.17;;;27.90;18.40;;;;;;2612828;54;20391;-76
2023/06/25 19:33:31;;;;;;;19.13;18.03;;;27.40;26.20;;;;;;2614522;39;20614;-76
2023/06/25 19:39:20;;;;;;;19.80;18.80;;;26.90;30.30;;;;;;2612578;54;20739;-75
2023/06/25 19:45:08;;;;;;;19.00;17.90;;;26.60;38.20;;;;;;2611903;54;20470;-75
2023/06/25 19:50:56;;;;;;;20.23;19.23;;;26.20;48.20;;;;;;2613741;54;20419;-76
2023/06/25 19:56:44;;;;;;;19.57;18.37;;;26.00;58.90;;;;;;2610614;39;20504;-75
2023/06/25 20:02:32;;;;;;;19.17;18.27;;;25.70;62.10;;;;;;2613031;31;20861;-76
2023/06/25 20:08:20;;;;;;;20.60;19.40;;;25.50;67.50;;;;;;2613461;54;20179;-76
2023/06/25 20:14:08;;;;;;;19.53;18.43;;;25.20;82.80;;;;;;2613325;54;20131;-77
2023/06/25 20:20:11;;;;;;;20.07;18.67;;;25.00;93.20;;;;;;2608758;54;20158;-76
2023/06/25 20:25:59;;;;;;;20.17;18.97;;;24.80;99.90;;;;;;2612943;39;20798;-76
2023/06/25 20:31:46;;;;;;;20.00;18.33;;;24.50;99.90;;;;;;2614081;54;20739;-76
2023/06/25 20:37:34;;;;;;;19.87;18.77;;;24.40;99.90;;;;;;2612101;54;20126;-76
2023/06/25 20:43:22;;;;;;;19.17;18.17;;;24.20;99.90;;;;;;2614081;54;20122;-76
2023/06/25 20:49:18;;;;;;;18.87;17.77;;;24.00;99.90;;;;;;2614381;54;20658;-77
2023/06/25 20:55:08;;;;;;;18.60;17.40;;;23.90;99.90;;;;;;2613365;54;20406;-76
2023/06/25 21:00:56;;;;;;;18.47;17.47;;;23.80;99.90;;;;;;2611818;54;20525;-74
2023/06/25 21:10:04;;;;;;;18.80;17.60;;;23.50;99.90;;;;;;2610352;54;21013;-76
2023/06/25 21:15:51;;;;;;;18.50;17.30;;;23.30;99.90;;;;;;2613251;54;20415;-76
2023/06/25 21:21:38;;;;;;;19.00;17.07;;;23.20;99.90;;;;;;2612008;54;20158;-76
2023/06/25 21:27:26;;;;;;;17.53;16.43;;;23.00;99.90;;;;;;2613930;54;20134;-75
2023/06/25 21:33:14;;;;;;;19.30;17.90;;;22.80;99.90;;;;;;2613594;54;20147;-75
2023/06/25 21:39:03;;;;;;;17.57;16.50;;;22.80;99.90;;;;;;2611581;54;20197;-74
2023/06/25 21:44:51;;;;;;;16.73;15.73;;;22.60;99.90;;;;;;2612590;54;20395;-76
2023/06/25 21:50:39;;;;;;;17.23;16.13;;;22.60;99.90;;;;;;2610745;54;20183;-75
2023/06/25 21:56:27;;;;;;;16.80;15.70;;;22.40;99.90;;;;;;2612966;39;20381;-76
2023/06/25 22:02:16;;;;;;;16.50;15.50;;;22.40;99.90;;;;;;2611446;54;20164;-76
2023/06/25 22:08:04;;;;;;;17.40;16.20;;;22.30;99.90;;;;;;2613678;54;21008;-75
2023/06/25 22:13:52;;;;;;;17.43;16.27;;;22.20;99.90;;;;;;2612117;54;20147;-76
2023/06/25 22:19:40;;;;;;;17.27;16.17;;;22.10;99.90;;;;;;2611192;54;20186;-75
2023/06/25 22:25:27;;;;;;;16.90;15.70;;;21.90;99.90;;;;;;2614663;39;20955;-75
2023/06/25 22:31:15;;;;;;;17.60;16.60;;;21.80;99.90;;;;;;2613852;54;20126;-75
2023/06/25 22:37:03;;;;;;;17.37;16.27;;;21.70;99.90;;;;;;2610666;39;20210;-75
2023/06/25 22:42:51;;;;;;;16.80;15.80;;;21.60;99.90;;;;;;2611810;54;20443;-74
2023/06/25 22:48:42;;;;;;;17.67;16.37;;;21.60;99.90;;;;;;2612443;54;20130;-75
2023/06/25 22:54:30;;;;;;;18.83;17.20;;;21.70;99.90;;;;;;2611712;54;20395;-76
2023/06/25 23:00:18;;;;;;;19.00;17.70;;;22.00;99.90;;;;;;2612680;54;20158;-75
2023/06/25 23:06:08;;;;;;;19.10;17.63;;;22.90;99.90;;;;;;2610499;54;20134;-75
2023/06/25 23:11:55;;;;;;;19.00;17.93;;;22.80;99.90;;;;;;2614402;54;20949;-76
2023/06/25 23:28:07;;;;;;;20.47;19.30;;;23.40;99.90;;;;;;2609409;54;20427;-75
2023/06/25 23:33:55;;;;;;;18.10;17.10;;;23.40;99.90;;;;;;2609970;39;20800;-75
2023/06/25 23:39:42;;;;;;;20.60;19.30;;;23.40;99.90;;;;;;2611350;54;20152;-75
2023/06/25 23:45:29;;;;;;;20.27;19.10;;;23.40;99.90;;;;;;2611761;54;20163;-76
2023/06/25 23:51:16;;;;;;;20.97;19.60;;;23.40;99.90;;;;;;2611680;54;20131;-76
2023/06/25 23:57:04;;;;;;;19.23;18.13;;;23.30;99.90;;;;;;2609850;54;20250;-76
